createdAt,value
2018-11-14T00:00:26.318Z,5.03
2018-11-14T00:02:56.116Z,3.33
2018-11-14T00:05:25.051Z,6.87
2018-11-14T00:07:54.156Z,6.67
2018-11-14T00:10:23.108Z,8.28
2018-11-14T00:12:52.250Z,5.67
2018-11-14T00:15:23.121Z,4.47
2018-11-14T00:17:53.034Z,7.00
2018-11-14T00:20:22.353Z,5.00
2018-11-14T00:22:51.782Z,6.03
2018-11-14T00:25:21.084Z,7.45
2018-11-14T00:27:50.153Z,5.78
2018-11-14T00:30:26.240Z,7.72
2018-11-14T00:32:55.155Z,5.12
2018-11-14T00:35:24.721Z,5.22
2018-11-14T00:37:53.954Z,7.03
2018-11-14T00:40:22.952Z,8.03
2018-11-14T00:42:51.836Z,7.50
2018-11-14T00:45:22.054Z,7.83
2018-11-14T00:47:52.102Z,4.70
2018-11-14T00:50:21.421Z,5.97
2018-11-14T00:52:50.334Z,6.00
2018-11-14T00:55:21.324Z,7.75
2018-11-14T00:57:51.844Z,6.28
2018-11-14T01:00:22.549Z,7.30
2018-11-14T01:02:51.573Z,5.78
2018-11-14T01:05:20.879Z,6.33
2018-11-14T01:07:49.391Z,9.77
2018-11-14T01:10:18.955Z,8.33
2018-11-14T01:12:48.778Z,6.47
2018-11-14T01:15:19.197Z,4.35
2018-11-14T01:17:47.697Z,7.53
2018-11-14T01:20:17.489Z,6.23
2018-11-14T01:22:46.893Z,5.80
2018-11-14T01:25:16.095Z,5.20
2018-11-14T01:27:46.007Z,5.10
2018-11-14T01:30:17.357Z,8.13
2018-11-14T01:32:46.573Z,7.37
2018-11-14T01:35:15.611Z,7.50
2018-11-14T01:37:44.019Z,8.13
2018-11-14T01:40:15.384Z,5.40
2018-11-14T01:42:45.414Z,5.33
2018-11-14T01:45:14.326Z,4.58
2018-11-14T01:47:49.530Z,6.53
2018-11-14T01:50:18.299Z,6.37
2018-11-14T01:52:46.702Z,5.67
2018-11-14T01:55:16.621Z,5.47
2018-11-14T01:57:45.017Z,5.30
2018-11-14T02:00:18.291Z,5.57
2018-11-14T02:02:47.609Z,7.70
2018-11-14T02:05:16.157Z,5.27
2018-11-14T02:07:44.871Z,4.73
2018-11-14T02:10:14.844Z,5.67
2018-11-14T02:12:43.843Z,7.47
2018-11-14T02:15:14.562Z,8.05
2018-11-14T02:17:43.512Z,7.05
2018-11-14T02:20:12.897Z,6.13
2018-11-14T02:22:41.988Z,6.03
2018-11-14T02:25:11.186Z,8.03
2018-11-14T02:27:40.878Z,6.87
2018-11-14T02:30:14.588Z,6.80
2018-11-14T02:32:43.173Z,5.07
2018-11-14T02:35:12.236Z,5.97
2018-11-14T02:37:41.970Z,7.97
2018-11-14T02:40:13.226Z,7.37
2018-11-14T02:42:42.213Z,6.65
2018-11-14T02:45:11.707Z,7.60
2018-11-14T02:47:40.610Z,6.72
2018-11-14T02:50:10.944Z,9.03
2018-11-14T02:52:39.402Z,6.57
2018-11-14T02:55:09.433Z,6.93
2018-11-14T02:57:37.799Z,8.87
2018-11-14T03:00:09.485Z,6.33
2018-11-14T03:02:37.907Z,10.30
2018-11-14T03:05:06.752Z,8.40
2018-11-14T03:07:35.235Z,7.50
2018-11-14T03:10:03.767Z,8.77
2018-11-14T03:12:32.415Z,5.17
2018-11-14T03:15:00.835Z,9.27
2018-11-14T03:17:29.175Z,5.80
2018-11-14T03:19:57.553Z,8.73
2018-11-14T03:22:25.949Z,6.53
2018-11-14T03:24:54.657Z,7.93
2018-11-14T03:27:23.140Z,6.43
2018-11-14T03:29:51.553Z,8.87
2018-11-14T03:32:19.945Z,9.93
2018-11-14T03:34:48.321Z,9.43
2018-11-14T03:37:16.701Z,11.57
2018-11-14T03:39:45.057Z,7.20
2018-11-14T03:42:13.435Z,8.67
2018-11-14T03:44:41.828Z,7.17
2018-11-14T03:47:10.827Z,9.45
2018-11-14T03:49:39.307Z,6.53
2018-11-14T03:52:08.889Z,10.03
2018-11-14T03:54:37.283Z,4.53
2018-11-14T03:57:06.281Z,7.55
2018-11-14T03:59:34.661Z,7.63
2018-11-14T04:02:03.070Z,7.35
2018-11-14T04:04:31.627Z,7.80
2018-11-14T04:07:00.819Z,8.03
2018-11-14T04:09:29.505Z,9.10
2018-11-14T04:11:57.939Z,8.00
2018-11-14T04:14:26.306Z,6.27
2018-11-14T04:16:55.010Z,8.07
2018-11-14T04:19:23.493Z,8.40
2018-11-14T04:21:51.851Z,7.43
2018-11-14T04:24:20.230Z,6.83
2018-11-14T04:26:48.668Z,6.87
2018-11-14T04:29:17.030Z,9.27
2018-11-14T04:31:45.522Z,11.03
2018-11-14T04:34:13.911Z,14.00
2018-11-14T04:36:42.477Z,11.47
2018-11-14T04:39:11.682Z,10.50
2018-11-14T04:41:40.266Z,10.90
2018-11-14T04:44:09.250Z,6.90
2018-11-14T04:46:37.981Z,10.93
2018-11-14T04:49:06.705Z,8.77
2018-11-14T04:51:35.077Z,10.23
2018-11-14T04:54:03.642Z,8.80
2018-11-14T04:56:32.001Z,7.93
2018-11-14T04:59:00.320Z,8.57
2018-11-14T05:01:28.830Z,11.40
2018-11-14T05:03:57.185Z,12.00
2018-11-14T05:06:25.999Z,11.73
2018-11-14T05:08:54.379Z,7.87
2018-11-14T05:11:22.758Z,10.77
2018-11-14T05:13:51.089Z,7.97
2018-11-14T05:16:19.523Z,7.73
2018-11-14T05:18:47.945Z,8.60
2018-11-14T05:21:16.947Z,9.60
2018-11-14T05:23:45.287Z,7.70
2018-11-14T05:26:13.665Z,10.90
2018-11-14T05:28:42.019Z,8.70
2018-11-14T05:31:10.483Z,12.30
2018-11-14T05:33:38.851Z,6.70
2018-11-14T05:36:07.253Z,10.20
2018-11-14T05:38:35.859Z,10.13
2018-11-14T05:41:04.289Z,10.30
2018-11-14T05:43:32.777Z,10.67
2018-11-14T05:46:01.164Z,10.83
2018-11-14T05:48:29.557Z,9.73
2018-11-14T05:50:57.926Z,9.43
2018-11-14T05:53:26.337Z,9.27
2018-11-14T05:55:54.713Z,13.93
2018-11-14T05:58:23.117Z,7.13
2018-11-14T06:00:51.482Z,8.83
2018-11-14T06:03:19.852Z,12.17
2018-11-14T06:05:48.261Z,13.33
2018-11-14T06:08:23.171Z,12.07
2018-11-14T06:10:51.598Z,13.80
2018-11-14T06:13:20.054Z,14.97
2018-11-14T06:15:48.451Z,12.57
2018-11-14T06:18:16.793Z,11.50
2018-11-14T06:20:45.204Z,32.60
2018-11-14T06:23:14.139Z,8.53
2018-11-14T06:25:42.514Z,9.03
2018-11-14T06:28:11.605Z,12.70
2018-11-14T06:30:41.426Z,13.17
2018-11-14T06:33:10.824Z,12.93
2018-11-14T06:35:39.218Z,12.87
2018-11-14T06:38:07.667Z,14.23
2018-11-14T06:40:36.046Z,12.17
2018-11-14T06:43:04.530Z,13.27
2018-11-14T06:45:33.762Z,11.00
2018-11-14T06:48:02.819Z,10.57
2018-11-14T06:50:31.276Z,13.17
2018-11-14T06:53:01.236Z,12.33
2018-11-14T06:55:29.654Z,10.60
2018-11-14T06:57:58.146Z,17.67
2018-11-14T07:00:29.239Z,10.27
2018-11-14T07:02:58.152Z,12.87
2018-11-14T07:05:26.575Z,19.63
2018-11-14T07:07:55.191Z,13.37
2018-11-14T07:10:24.903Z,10.53
2018-11-14T07:12:53.313Z,10.30
2018-11-14T07:15:23.185Z,16.27
2018-11-14T07:17:52.780Z,9.10
2018-11-14T07:20:24.065Z,11.30
2018-11-14T07:22:52.869Z,15.00
2018-11-14T07:25:21.287Z,13.73
2018-11-14T07:27:49.867Z,12.27
2018-11-14T07:30:20.109Z,12.87
2018-11-14T07:32:49.724Z,10.70
2018-11-14T07:35:19.123Z,12.75
2018-11-14T07:38:57.847Z,10.35
2018-11-14T07:41:28.843Z,10.40
2018-11-14T07:43:57.357Z,9.83
2018-11-14T07:46:26.975Z,12.63
2018-11-14T07:48:55.447Z,15.40
2018-11-14T07:51:24.653Z,14.15
2018-11-14T07:53:53.132Z,12.60
2018-11-14T07:56:21.635Z,16.23
2018-11-14T07:58:50.056Z,14.80
2018-11-14T08:01:18.560Z,12.17
2018-11-14T08:03:47.169Z,12.87
2018-11-14T08:06:16.191Z,15.95
2018-11-14T08:08:44.958Z,13.18
2018-11-14T08:11:14.268Z,14.68
2018-11-14T08:13:44.675Z,10.25
2018-11-14T08:16:14.385Z,11.55
2018-11-14T08:18:43.344Z,12.30
2018-11-14T08:21:12.476Z,10.82
2018-11-14T08:23:41.441Z,10.98
2018-11-14T08:26:10.396Z,12.60
2018-11-14T08:28:39.363Z,11.00
2018-11-14T08:31:08.302Z,12.58
2018-11-14T08:33:37.216Z,11.08
2018-11-14T08:36:06.743Z,12.25
2018-11-14T08:38:35.857Z,12.40
2018-11-14T08:41:06.144Z,10.15
2018-11-14T08:43:35.263Z,11.22
2018-11-14T08:46:04.213Z,11.38
2018-11-14T08:48:33.217Z,11.57
2018-11-14T08:51:02.253Z,11.28
2018-11-14T08:53:31.198Z,10.30
2018-11-14T08:56:01.045Z,8.75
2018-11-14T08:58:29.998Z,11.63
2018-11-14T09:00:59.021Z,10.70
2018-11-14T09:03:28.201Z,9.88
2018-11-14T09:05:57.342Z,13.95
2018-11-14T09:08:26.269Z,13.03
2018-11-14T09:10:55.305Z,12.82
2018-11-14T09:13:24.449Z,10.75
2018-11-14T09:15:53.379Z,15.35
2018-11-14T09:18:22.375Z,10.72
2018-11-14T09:20:51.643Z,9.45
2018-11-14T09:23:20.579Z,7.85
2018-11-14T09:25:49.657Z,11.65
2018-11-14T09:28:18.609Z,11.40
2018-11-14T09:30:47.578Z,7.60
2018-11-14T09:33:16.767Z,10.90
2018-11-14T09:35:46.064Z,9.53
2018-11-14T09:38:15.273Z,11.38
2018-11-14T09:40:44.385Z,8.78
2018-11-14T09:43:13.555Z,11.48
2018-11-14T09:45:42.482Z,12.15
2018-11-14T09:48:11.552Z,9.55
2018-11-14T09:50:40.586Z,8.88
2018-11-14T09:53:09.822Z,6.80
2018-11-14T09:55:38.976Z,7.55
2018-11-14T09:58:07.935Z,8.85
2018-11-14T10:00:36.915Z,8.10
2018-11-14T10:03:11.136Z,8.38
2018-11-14T10:05:40.068Z,5.37
2018-11-14T10:08:09.442Z,10.53
2018-11-14T10:10:38.762Z,8.55
2018-11-14T10:13:07.766Z,10.10
2018-11-14T10:15:36.716Z,8.55
2018-11-14T10:18:05.857Z,9.05
2018-11-14T10:20:34.834Z,10.43
2018-11-14T10:23:04.372Z,7.20
2018-11-14T10:25:33.620Z,8.90
2018-11-14T10:28:09.188Z,7.28
2018-11-14T10:30:38.126Z,9.38
2018-11-14T10:33:07.052Z,6.97
2018-11-14T10:35:35.999Z,8.55
2018-11-14T10:38:05.084Z,11.70
2018-11-14T10:40:34.062Z,13.60
2018-11-14T10:43:03.114Z,7.15
2018-11-14T10:45:32.214Z,10.32
2018-11-14T10:48:01.248Z,9.65
2018-11-14T10:50:30.268Z,11.28
2018-11-14T10:52:59.450Z,10.38
2018-11-14T10:55:28.650Z,8.13
2018-11-14T10:57:57.678Z,10.50
2018-11-14T11:00:32.660Z,11.60
2018-11-14T11:03:08.562Z,8.48
2018-11-14T11:05:43.756Z,7.92
2018-11-14T11:08:19.865Z,6.87
2018-11-14T11:10:54.796Z,9.33
2018-11-14T11:13:29.488Z,12.05
2018-11-14T11:16:05.786Z,10.80
2018-11-14T11:18:35.880Z,7.67
2018-11-14T11:21:06.107Z,10.90
2018-11-14T11:23:36.976Z,8.85
2018-11-14T11:26:06.263Z,9.03
2018-11-14T11:28:35.543Z,10.18
2018-11-14T11:31:04.540Z,9.00
2018-11-14T11:33:33.503Z,8.65
2018-11-14T11:36:02.559Z,10.03
2018-11-14T11:38:31.495Z,5.87
2018-11-14T11:41:01.042Z,9.30
2018-11-14T11:43:29.982Z,6.78
2018-11-14T11:45:58.907Z,8.90
2018-11-14T11:48:27.888Z,9.90
2018-11-14T11:50:56.854Z,6.30
2018-11-14T11:53:25.997Z,9.25
2018-11-14T11:55:55.344Z,9.98
2018-11-14T11:58:24.361Z,5.40
2018-11-14T12:00:53.344Z,7.10
2018-11-14T12:03:22.493Z,7.30
2018-11-14T12:05:51.515Z,11.68
2018-11-14T12:08:21.112Z,8.25
2018-11-14T12:10:50.141Z,8.10
2018-11-14T12:13:19.184Z,5.60
2018-11-14T12:15:48.419Z,8.33
2018-11-14T12:18:17.488Z,9.45
2018-11-14T12:20:46.883Z,7.17
2018-11-14T12:23:15.955Z,8.23
2018-11-14T12:25:45.054Z,6.70
2018-11-14T12:28:14.073Z,10.93
2018-11-14T12:30:43.112Z,5.40
2018-11-14T12:33:12.361Z,7.35
2018-11-14T12:35:41.593Z,7.78
2018-11-14T12:38:10.914Z,9.18
2018-11-14T12:40:40.731Z,9.38
2018-11-14T12:43:09.991Z,8.35
2018-11-14T12:45:38.914Z,6.05
2018-11-14T12:48:07.940Z,5.22
2018-11-14T12:50:36.884Z,6.33
2018-11-14T12:53:05.912Z,8.58
2018-11-14T12:55:34.892Z,5.53
2018-11-14T12:58:03.998Z,11.45
2018-11-14T13:00:33.188Z,6.45
2018-11-14T13:03:02.312Z,6.97
2018-11-14T13:05:31.306Z,3.87
2018-11-14T13:08:00.300Z,7.62
2018-11-14T13:10:29.474Z,5.45
2018-11-14T13:12:58.416Z,4.58
2018-11-14T13:15:27.604Z,7.47
2018-11-14T13:17:56.668Z,4.85
2018-11-14T13:20:25.978Z,4.20
2018-11-14T13:22:54.926Z,8.33
2018-11-14T13:25:23.844Z,7.28
2018-11-14T13:27:52.817Z,6.05
2018-11-14T13:30:23.493Z,7.87
2018-11-14T13:32:53.721Z,12.53
2018-11-14T13:35:23.580Z,3.72
2018-11-14T13:37:52.841Z,6.08
2018-11-14T13:40:21.936Z,5.25
2018-11-14T13:42:50.865Z,5.60
2018-11-14T13:45:20.033Z,5.03
2018-11-14T13:47:49.187Z,5.30
2018-11-14T13:50:20.629Z,8.08
2018-11-14T13:52:49.733Z,5.67
2018-11-14T13:55:19.569Z,11.53
2018-11-14T13:57:49.713Z,5.50
2018-11-14T14:00:20.323Z,24.02
2018-11-14T14:02:50.552Z,14.45
2018-11-14T14:05:21.139Z,12.65
2018-11-14T14:07:50.485Z,8.80
2018-11-14T14:10:19.679Z,7.25
2018-11-14T14:12:51.365Z,7.00
2018-11-14T14:15:22.581Z,8.98
2018-11-14T14:17:52.726Z,7.70
2018-11-14T14:20:22.929Z,7.12
2018-11-14T14:22:52.084Z,8.25
2018-11-14T14:25:22.629Z,5.53
2018-11-14T14:27:51.744Z,11.30
2018-11-14T14:30:22.128Z,10.30
2018-11-14T14:32:51.177Z,8.13
2018-11-14T14:35:21.787Z,7.03
2018-11-14T14:37:51.492Z,11.12
2018-11-14T14:40:22.034Z,9.90
2018-11-14T14:42:51.437Z,9.15
2018-11-14T14:45:22.278Z,5.30
2018-11-14T14:47:51.340Z,6.62
2018-11-14T14:50:20.726Z,9.23
2018-11-14T14:52:49.873Z,7.00
2018-11-14T14:55:21.526Z,10.23
2018-11-14T14:57:50.552Z,9.85
2018-11-14T15:00:21.667Z,8.20
2018-11-14T15:02:50.615Z,11.38
2018-11-14T15:05:19.714Z,8.45
2018-11-14T15:07:48.672Z,16.42
2018-11-14T15:10:18.929Z,12.28
2018-11-14T15:12:47.904Z,15.30
2018-11-14T15:15:17.342Z,8.15
2018-11-14T15:17:46.569Z,10.20
2018-11-14T15:20:17.976Z,6.78
2018-11-14T15:22:47.290Z,12.28
2018-11-14T15:25:18.083Z,10.90
2018-11-14T15:27:47.566Z,11.12
2018-11-14T15:30:19.831Z,14.78
2018-11-14T15:32:48.804Z,10.98
2018-11-14T15:35:18.291Z,10.20
2018-11-14T15:37:47.320Z,10.53
2018-11-14T15:40:17.533Z,11.70
2018-11-14T15:42:47.129Z,12.60
2018-11-14T15:45:18.068Z,12.58
2018-11-14T15:47:47.097Z,14.45
2018-11-14T15:50:18.266Z,14.10
2018-11-14T15:52:48.132Z,10.85
2018-11-14T15:55:18.186Z,11.18
2018-11-14T15:57:47.402Z,10.35
2018-11-14T16:00:28.065Z,11.75
2018-11-14T16:02:57.233Z,12.37
2018-11-14T16:05:27.275Z,10.28
2018-11-14T16:07:57.641Z,9.70
2018-11-14T16:10:27.439Z,10.43
2018-11-14T16:12:56.389Z,19.95
2018-11-14T16:15:28.117Z,17.27
2018-11-14T16:17:57.461Z,14.70
2018-11-14T16:20:27.027Z,15.43
2018-11-14T16:22:56.224Z,15.60
2018-11-14T16:25:26.555Z,14.35
2018-11-14T16:27:57.930Z,19.57
2018-11-14T16:30:31.182Z,14.53
2018-11-14T16:33:01.850Z,14.78
2018-11-14T16:35:31.793Z,16.12
2018-11-14T16:38:00.981Z,15.45
2018-11-14T16:40:32.064Z,17.27
2018-11-14T16:43:02.507Z,13.65
2018-11-14T16:45:31.517Z,16.62
2018-11-14T16:48:00.570Z,16.93
2018-11-14T16:50:29.555Z,13.55
2018-11-14T16:52:58.523Z,17.30
2018-11-14T16:55:27.605Z,21.75
2018-11-14T16:57:57.449Z,17.40
2018-11-14T17:00:31.184Z,22.48
2018-11-14T17:03:00.354Z,16.05
2018-11-14T17:05:30.432Z,11.57
2018-11-14T17:07:59.484Z,16.30
2018-11-14T17:10:29.062Z,15.08
2018-11-14T17:12:59.219Z,18.23
2018-11-14T17:15:28.726Z,14.33
2018-11-14T17:17:57.690Z,12.73
2018-11-14T17:20:26.669Z,17.48
2018-11-14T17:22:55.932Z,15.63
2018-11-14T17:25:25.001Z,14.98
2018-11-14T17:27:54.360Z,17.82
2018-11-14T17:30:24.646Z,15.98
2018-11-14T17:32:54.016Z,15.40
2018-11-14T17:35:23.008Z,23.35
2018-11-14T17:37:51.964Z,16.20
2018-11-14T17:40:24.319Z,16.40
2018-11-14T17:42:54.041Z,18.07
2018-11-14T17:45:26.307Z,17.15
2018-11-14T17:47:56.174Z,15.03
2018-11-14T17:50:26.773Z,21.30
2018-11-14T17:52:56.589Z,22.67
2018-11-14T17:55:26.346Z,36.33
2018-11-14T17:57:55.591Z,36.40
2018-11-14T18:00:25.975Z,25.17
2018-11-14T18:02:54.998Z,28.95
2018-11-14T18:05:25.385Z,28.45
2018-11-14T18:07:54.770Z,23.80
2018-11-14T18:10:25.553Z,21.68
2018-11-14T18:12:55.546Z,23.73
2018-11-14T18:15:24.612Z,23.02
2018-11-14T18:17:54.221Z,19.05
2018-11-14T18:20:24.556Z,19.82
2018-11-14T18:22:54.411Z,23.00
2018-11-14T18:25:24.123Z,20.97
2018-11-14T18:27:53.580Z,18.05
2018-11-14T18:30:24.158Z,20.45
2018-11-14T18:32:54.657Z,22.02
2018-11-14T18:35:24.366Z,21.02
2018-11-14T18:37:54.554Z,30.40
2018-11-14T18:40:25.423Z,22.10
2018-11-14T18:42:54.387Z,19.70
2018-11-14T18:45:26.503Z,27.02
2018-11-14T18:47:57.830Z,20.37
2018-11-14T18:50:27.335Z,20.92
2018-11-14T18:52:56.416Z,23.05
2018-11-14T18:55:29.017Z,25.85
2018-11-14T18:57:58.659Z,20.92
2018-11-14T19:00:28.928Z,22.75
2018-11-14T19:02:58.118Z,21.17
2018-11-14T19:05:27.097Z,22.65
2018-11-14T19:07:56.347Z,24.52
2018-11-14T19:10:27.038Z,25.23
2018-11-14T19:12:56.011Z,19.40
2018-11-14T19:15:26.364Z,21.45
2018-11-14T19:17:55.572Z,22.22
2018-11-14T19:20:26.206Z,18.92
2018-11-14T19:22:55.900Z,20.50
2018-11-14T19:25:28.301Z,19.12
2018-11-14T19:27:57.279Z,19.70
2018-11-14T19:30:27.741Z,21.10
2018-11-14T19:32:57.562Z,22.82
2018-11-14T19:35:26.695Z,19.42
2018-11-14T19:37:56.318Z,19.57
2018-11-14T19:40:26.650Z,24.47
2018-11-14T19:42:57.176Z,26.07
2018-11-14T19:45:34.951Z,20.68
2018-11-14T19:48:04.057Z,20.10
2018-11-14T19:50:33.362Z,22.42
2018-11-14T19:53:02.768Z,23.55
2018-11-14T19:55:32.449Z,20.12
2018-11-14T19:58:02.702Z,21.42
2018-11-14T20:00:34.867Z,24.32
2018-11-14T20:03:04.283Z,25.20
2018-11-14T20:05:33.250Z,19.15
2018-11-14T20:08:02.347Z,20.80
2018-11-14T20:10:32.612Z,18.77
2018-11-14T20:13:01.755Z,17.55
2018-11-14T20:15:33.139Z,19.65
2018-11-14T20:18:02.538Z,18.77
2018-11-14T20:20:32.948Z,18.75
2018-11-14T20:23:02.103Z,18.37
2018-11-14T20:25:31.179Z,20.30
2018-11-14T20:28:00.132Z,17.67
2018-11-14T20:30:32.379Z,23.70
2018-11-14T20:33:03.328Z,19.40
2018-11-14T20:35:32.296Z,19.65
2018-11-14T20:38:01.209Z,19.17
2018-11-14T20:40:30.328Z,16.90
2018-11-14T20:42:59.343Z,17.52
2018-11-14T20:45:30.011Z,15.40
2018-11-14T20:47:58.968Z,22.73
2018-11-14T20:50:28.737Z,20.88
2018-11-14T20:53:00.646Z,19.32
2018-11-14T20:55:30.366Z,21.65
2018-11-14T20:58:00.045Z,20.02
2018-11-14T21:00:32.194Z,20.17
2018-11-14T21:03:01.239Z,23.73
2018-11-14T21:05:30.799Z,22.82
2018-11-14T21:07:59.972Z,21.90
2018-11-14T21:10:30.734Z,19.45
2018-11-14T21:13:00.548Z,19.98
2018-11-14T21:15:31.399Z,18.25
2018-11-14T21:18:01.582Z,19.87
2018-11-14T21:20:30.586Z,21.62
2018-11-14T21:22:59.751Z,18.90
2018-11-14T21:25:29.003Z,19.73
2018-11-14T21:27:58.220Z,20.48
2018-11-14T21:30:28.581Z,21.00
2018-11-14T21:32:57.546Z,22.00
2018-11-14T21:35:30.614Z,23.20
2018-11-14T21:38:00.798Z,22.00
2018-11-14T21:40:29.741Z,25.85
2018-11-14T21:42:58.692Z,20.80
2018-11-14T21:45:28.817Z,25.25
2018-11-14T21:48:03.239Z,22.95
2018-11-14T21:50:33.181Z,22.55
2018-11-14T21:53:03.011Z,25.20
2018-11-14T21:55:31.844Z,24.18
2018-11-14T21:58:00.917Z,25.97
2018-11-14T22:00:33.036Z,22.85
2018-11-14T22:03:02.753Z,24.70
2018-11-14T22:05:31.817Z,23.18
2018-11-14T22:08:00.749Z,26.62
2018-11-14T22:10:29.682Z,28.45
2018-11-14T22:12:58.079Z,25.62
2018-11-14T22:15:28.409Z,26.35
2018-11-14T22:17:57.382Z,27.20
2018-11-14T22:20:27.515Z,25.40
2018-11-14T22:22:56.481Z,27.20
2018-11-14T22:25:26.674Z,28.52
2018-11-14T22:27:55.775Z,24.77
2018-11-14T22:30:28.704Z,26.43
2018-11-14T22:32:57.278Z,29.53
2018-11-14T22:35:27.386Z,28.12
2018-11-14T22:37:56.552Z,26.42
2018-11-14T22:40:26.935Z,30.90
2018-11-14T22:42:55.869Z,29.87
2018-11-14T22:45:28.099Z,31.42
2018-11-14T22:47:56.541Z,27.73
2018-11-14T22:50:25.864Z,28.13
2018-11-14T22:52:55.065Z,30.32
2018-11-14T22:55:24.473Z,27.47
2018-11-14T22:57:53.992Z,28.95
2018-11-14T23:00:29.427Z,30.40
2018-11-14T23:02:59.163Z,27.30
2018-11-14T23:05:28.238Z,32.83
2018-11-14T23:07:57.295Z,28.27
2018-11-14T23:10:26.182Z,28.47
2018-11-14T23:12:54.721Z,28.80
2018-11-14T23:15:24.131Z,29.00
2018-11-14T23:17:52.738Z,29.33
2018-11-14T23:20:21.899Z,28.32
2018-11-14T23:22:51.086Z,30.00
2018-11-14T23:25:19.924Z,27.57
2018-11-14T23:27:50.635Z,28.67
2018-11-14T23:30:20.128Z,25.97
2018-11-14T23:32:49.653Z,31.40
2018-11-14T23:35:19.630Z,31.80
2018-11-14T23:37:52.820Z,27.70
2018-11-14T23:40:21.817Z,24.60
2018-11-14T23:42:50.708Z,28.97
2018-11-14T23:45:20.144Z,30.60
2018-11-14T23:47:49.058Z,30.80
2018-11-14T23:50:20.969Z,28.67
2018-11-14T23:52:50.468Z,24.67
2018-11-14T23:55:20.040Z,26.77
2018-11-14T23:57:48.451Z,24.70
